Time;durP1;ratioP1;P1;durP2;ratioP2;P2;SDS_P1;SDS_P2;PMS_P1;PMS_P2;Temp;Humidity;BMP_temperature;BMP_pressure;BME280_temperature;BME280_humidity;BME280_pressure;Samples;Min_cycle;Max_cycle;Signal;HPM_P1;HPM_P2
2023/02/26 00:01:17;;;;;;;6.07;3.63;;;;;;;;;;5031657;28;20456;-76
2023/02/26 00:03:42;;;;;;;8.70;4.47;;;;;;;;;;5031081;28;20029;-75
2023/02/26 00:06:08;;;;;;;6.20;3.67;;;;;;;;;;5032082;28;20458;-77
2023/02/26 00:08:34;;;;;;;7.80;3.70;;;;;;;;;;4997685;28;20053;-76
2023/02/26 00:11:00;;;;;;;4.23;3.07;;;;;;;;;;5013669;28;20083;-76
2023/02/26 00:13:27;;;;;;;4.03;2.93;;;;;;;;;;5029917;28;20033;-75
2023/02/26 00:16:01;;;;;;;3.17;2.70;;;;;;;;;;4996532;28;20089;-75
2023/02/26 00:18:27;;;;;;;4.53;2.60;;;;;;;;;;5012907;28;20149;-75
2023/02/26 00:20:53;;;;;;;4.77;2.03;;;;;;;;;;5031102;28;20079;-76
2023/02/26 00:23:19;;;;;;;4.50;2.33;;;;;;;;;;4996536;28;20029;-75
2023/02/26 00:25:45;;;;;;;2.60;1.97;;;;;;;;;;5013070;28;20068;-75
2023/02/26 00:28:11;;;;;;;1.97;1.53;;;;;;;;;;5013221;28;20040;-75
2023/02/26 00:30:37;;;;;;;4.50;1.90;;;;;;;;;;5030892;28;20029;-76
2023/02/26 00:33:04;;;;;;;5.20;2.30;;;;;;;;;;5013004;28;20032;-75
2023/02/26 00:35:30;;;;;;;3.20;1.63;;;;;;;;;;5012691;28;20124;-75
2023/02/26 00:38:13;;;;;;;2.67;2.20;;;;;;;;;;5012682;28;20547;-76
2023/02/26 00:40:48;;;;;;;4.03;2.20;;;;;;;;;;5010939;28;20025;-75
2023/02/26 00:43:23;;;;;;;2.67;2.20;;;;;;;;;;4994719;28;20026;-77
2023/02/26 00:46:14;;;;;;;4.77;2.10;;;;;;;;;;5012972;28;20037;-77
2023/02/26 00:48:42;;;;;;;2.00;1.43;;;;;;;;;;5030632;28;20528;-76
2023/02/26 00:51:51;;;;;;;4.30;2.33;;;;;;;;;;5012946;28;20064;-75
2023/02/26 00:54:28;;;;;;;3.30;1.90;;;;;;;;;;5025622;28;20052;-77
2023/02/26 00:56:56;;;;;;;3.10;2.10;;;;;;;;;;5012343;28;20033;-77
2023/02/26 00:59:22;;;;;;;3.13;1.77;;;;;;;;;;5012749;28;20094;-77
2023/02/26 01:01:48;;;;;;;2.07;1.80;;;;;;;;;;4996137;28;20129;-76
2023/02/26 01:04:16;;;;;;;1.63;1.33;;;;;;;;;;5030204;28;20037;-76
2023/02/26 01:06:49;;;;;;;2.43;1.87;;;;;;;;;;5028724;28;20021;-76
2023/02/26 01:09:24;;;;;;;4.37;2.33;;;;;;;;;;5030760;28;20017;-76
2023/02/26 01:11:50;;;;;;;2.53;2.33;;;;;;;;;;5012154;28;20056;-75
2023/02/26 01:14:18;;;;;;;4.50;2.83;;;;;;;;;;5011419;28;20065;-75
2023/02/26 01:17:19;;;;;;;3.43;1.90;;;;;;;;;;5012046;28;20521;-76
2023/02/26 01:20:04;;;;;;;3.53;1.80;;;;;;;;;;5012001;28;20137;-76
2023/02/26 01:22:36;;;;;;;3.10;2.20;;;;;;;;;;5029982;28;20033;-76
2023/02/26 01:25:09;;;;;;;4.15;2.33;;;;;;;;;;5011957;28;20033;-76
2023/02/26 01:27:35;;;;;;;2.63;2.10;;;;;;;;;;5029244;28;20099;-76
2023/02/26 01:30:01;;;;;;;2.57;1.83;;;;;;;;;;5028214;28;20037;-77
2023/02/26 01:32:49;;;;;;;4.40;2.37;;;;;;;;;;5011710;28;20017;-74
2023/02/26 01:35:17;;;;;;;4.93;2.47;;;;;;;;;;5029762;28;20030;-76
2023/02/26 01:38:00;;;;;;;2.27;2.00;;;;;;;;;;5011766;28;20040;-76
2023/02/26 01:41:00;;;;;;;4.20;2.67;;;;;;;;;;5012237;28;20029;-76
2023/02/26 01:43:34;;;;;;;4.17;2.90;;;;;;;;;;5029800;28;20057;-76
2023/02/26 01:46:10;;;;;;;4.57;1.93;;;;;;;;;;5011926;28;20025;-76
2023/02/26 01:48:50;;;;;;;3.57;2.60;;;;;;;;;;5027988;28;20024;-76
2023/02/26 01:51:18;;;;;;;3.10;2.77;;;;;;;;;;5030195;28;20044;-75
2023/02/26 01:53:44;;;;;;;6.03;2.17;;;;;;;;;;5012492;28;20029;-75
2023/02/26 01:56:18;;;;;;;2.17;1.87;;;;;;;;;;5028315;28;20505;-77
2023/02/26 01:58:48;;;;;;;2.63;1.70;;;;;;;;;;5011063;28;20113;-76
2023/02/26 02:01:13;;;;;;;4.40;2.27;;;;;;;;;;5011527;28;20034;-75
2023/02/26 02:03:41;;;;;;;4.40;1.80;;;;;;;;;;5011921;28;20025;-75
2023/02/26 02:06:19;;;;;;;2.33;1.60;;;;;;;;;;5028372;28;20052;-76
2023/02/26 02:08:45;;;;;;;4.33;2.00;;;;;;;;;;5030261;28;20018;-75
2023/02/26 02:11:12;;;;;;;2.30;1.70;;;;;;;;;;5015557;28;20025;-75
2023/02/26 02:14:23;;;;;;;2.50;1.53;;;;;;;;;;5032918;28;20028;-76
2023/02/26 02:17:06;;;;;;;6.20;1.60;;;;;;;;;;5028104;28;20041;-75
2023/02/26 02:19:56;;;;;;;1.60;1.50;;;;;;;;;;5033117;28;20438;-76
2023/02/26 02:22:37;;;;;;;3.37;2.13;;;;;;;;;;5032107;28;20037;-76
2023/02/26 02:25:21;;;;;;;1.70;1.60;;;;;;;;;;5031527;28;20040;-76
2023/02/26 02:28:18;;;;;;;1.53;1.30;;;;;;;;;;5031631;28;20258;-76
2023/02/26 02:31:11;;;;;;;1.67;1.57;;;;;;;;;;5008492;28;20120;-76
2023/02/26 02:33:48;;;;;;;3.77;1.60;;;;;;;;;;5033565;28;20030;-76
2023/02/26 02:36:43;;;;;;;2.93;1.60;;;;;;;;;;5015638;28;20100;-76
2023/02/26 02:39:24;;;;;;;6.53;2.00;;;;;;;;;;5013401;28;20029;-76
2023/02/26 02:41:59;;;;;;;1.20;1.10;;;;;;;;;;5014964;28;20290;-77
2023/02/26 02:44:28;;;;;;;2.47;1.23;;;;;;;;;;5031615;28;20142;-76
2023/02/26 02:46:57;;;;;;;1.27;1.07;;;;;;;;;;5015850;28;20022;-76
2023/02/26 02:49:25;;;;;;;1.30;1.10;;;;;;;;;;5033389;28;20041;-76
2023/02/26 02:51:55;;;;;;;3.10;1.37;;;;;;;;;;5032335;28;20426;-76
2023/02/26 02:54:35;;;;;;;1.47;1.37;;;;;;;;;;5031728;28;20467;-77
2023/02/26 02:57:23;;;;;;;3.07;1.50;;;;;;;;;;5032768;28;20030;-75
2023/02/26 02:59:56;;;;;;;1.77;1.60;;;;;;;;;;5030610;28;20090;-76
2023/02/26 03:02:31;;;;;;;2.13;1.53;;;;;;;;;;5032117;28;20029;-76
2023/02/26 03:04:56;;;;;;;1.90;1.40;;;;;;;;;;5030490;28;20107;-76
2023/02/26 03:07:22;;;;;;;2.30;1.50;;;;;;;;;;5032196;28;20445;-76
2023/02/26 03:09:48;;;;;;;1.33;1.23;;;;;;;;;;5030121;28;20025;-76
2023/02/26 03:12:14;;;;;;;3.40;1.90;;;;;;;;;;5014698;28;20068;-76
2023/02/26 03:14:40;;;;;;;3.07;1.63;;;;;;;;;;5014196;28;20042;-76
2023/02/26 03:17:18;;;;;;;1.97;1.40;;;;;;;;;;5031037;28;20033;-76
2023/02/26 03:19:53;;;;;;;2.57;1.50;;;;;;;;;;5031657;28;20469;-75
2023/02/26 03:22:41;;;;;;;2.83;1.60;;;;;;;;;;5032155;28;20032;-77
2023/02/26 03:25:13;;;;;;;1.90;1.50;;;;;;;;;;5031822;28;20036;-77
2023/02/26 03:28:07;;;;;;;2.63;1.80;;;;;;;;;;5031883;28;20048;-76
2023/02/26 03:30:57;;;;;;;1.27;1.00;;;;;;;;;;5031634;28;20509;-75
2023/02/26 03:33:33;;;;;;;2.57;1.50;;;;;;;;;;5014414;28;20116;-75
2023/02/26 03:36:23;;;;;;;2.90;1.40;;;;;;;;;;5030507;28;20025;-76
2023/02/26 03:39:02;;;;;;;1.63;1.50;;;;;;;;;;5031262;28;20021;-76
2023/02/26 03:42:03;;;;;;;1.83;1.00;;;;;;;;;;5013833;28;20048;-76
2023/02/26 03:44:41;;;;;;;1.93;1.70;;;;;;;;;;5014166;28;20083;-76
2023/02/26 03:47:11;;;;;;;2.83;1.53;;;;;;;;;;5031821;28;20074;-76
2023/02/26 03:50:03;;;;;;;2.30;1.47;;;;;;;;;;5013153;28;20826;-76
2023/02/26 03:52:31;;;;;;;1.60;1.20;;;;;;;;;;5013204;28;20035;-76
2023/02/26 03:55:04;;;;;;;2.53;1.63;;;;;;;;;;5031555;28;20030;-76
2023/02/26 03:57:30;;;;;;;1.23;1.13;;;;;;;;;;5013587;28;20025;-76
2023/02/26 03:59:56;;;;;;;1.47;1.10;;;;;;;;;;5013440;28;20420;-76
2023/02/26 04:02:28;;;;;;;2.40;1.57;;;;;;;;;;5013804;28;20021;-75
2023/02/26 04:04:59;;;;;;;1.50;1.40;;;;;;;;;;5014307;28;20056;-76
2023/02/26 04:07:25;;;;;;;1.63;1.10;;;;;;;;;;5014671;28;20141;-76
2023/02/26 04:09:51;;;;;;;1.60;1.30;;;;;;;;;;5014491;28;20262;-76
2023/02/26 04:12:22;;;;;;;2.50;1.10;;;;;;;;;;5033724;28;20343;-76
2023/02/26 04:14:48;;;;;;;1.13;1.03;;;;;;;;;;5016632;28;20045;-75
2023/02/26 04:17:13;;;;;;;3.27;0.93;;;;;;;;;;5038952;28;20041;-76
2023/02/26 04:19:39;;;;;;;1.30;1.10;;;;;;;;;;5044124;28;20048;-75
2023/02/26 04:22:04;;;;;;;1.83;1.03;;;;;;;;;;5045382;28;20037;-76
2023/02/26 04:24:30;;;;;;;1.93;1.07;;;;;;;;;;5021473;28;20112;-75
2023/02/26 04:26:55;;;;;;;1.23;1.10;;;;;;;;;;5019841;28;20783;-75
2023/02/26 04:29:21;;;;;;;1.37;1.00;;;;;;;;;;5016363;28;20025;-76
2023/02/26 04:31:46;;;;;;;1.47;1.37;;;;;;;;;;5030857;28;20531;-76
2023/02/26 04:34:12;;;;;;;1.83;1.30;;;;;;;;;;5013394;28;20033;-75
2023/02/26 04:36:37;;;;;;;0.80;0.80;;;;;;;;;;5030653;28;20378;-75
2023/02/26 04:39:03;;;;;;;1.37;1.17;;;;;;;;;;5013118;28;20037;-75
2023/02/26 04:41:28;;;;;;;1.70;1.43;;;;;;;;;;5030907;28;20565;-75
2023/02/26 04:43:54;;;;;;;1.50;1.27;;;;;;;;;;5012848;28;20017;-75
2023/02/26 04:46:19;;;;;;;2.17;1.30;;;;;;;;;;5030562;28;20566;-77
2023/02/26 04:48:45;;;;;;;2.57;1.60;;;;;;;;;;5030726;28;20025;-74
2023/02/26 04:51:11;;;;;;;1.63;1.53;;;;;;;;;;5012901;28;20052;-76
2023/02/26 04:53:36;;;;;;;1.00;1.00;;;;;;;;;;5012586;28;20052;-76
2023/02/26 04:56:02;;;;;;;1.57;1.20;;;;;;;;;;5030192;28;20638;-76
2023/02/26 04:58:27;;;;;;;0.80;0.80;;;;;;;;;;5029106;28;20920;-76
2023/02/26 05:00:54;;;;;;;1.30;1.20;;;;;;;;;;5030282;28;20390;-75
2023/02/26 05:03:20;;;;;;;1.10;1.00;;;;;;;;;;5012908;28;20124;-75
2023/02/26 05:05:46;;;;;;;1.00;0.90;;;;;;;;;;5012284;28;20037;-75
2023/02/26 05:08:12;;;;;;;2.40;1.17;;;;;;;;;;5012339;28;20032;-75
2023/02/26 05:10:37;;;;;;;2.00;1.43;;;;;;;;;;5030408;28;20374;-75
2023/02/26 05:13:03;;;;;;;1.30;1.17;;;;;;;;;;5012348;28;20120;-75
2023/02/26 05:15:29;;;;;;;1.97;1.27;;;;;;;;;;5029316;28;20044;-74
2023/02/26 05:17:55;;;;;;;3.57;1.20;;;;;;;;;;5012130;28;20611;-76
2023/02/26 05:20:21;;;;;;;1.00;0.83;;;;;;;;;;5029057;28;20021;-76
2023/02/26 05:22:47;;;;;;;0.73;0.73;;;;;;;;;;5030337;28;20048;-75
2023/02/26 05:25:13;;;;;;;1.27;1.10;;;;;;;;;;5012076;28;20029;-75
2023/02/26 05:27:39;;;;;;;4.87;1.93;;;;;;;;;;5012012;28;20075;-75
2023/02/26 05:30:05;;;;;;;0.93;0.93;;;;;;;;;;5027823;28;20117;-75
2023/02/26 05:32:31;;;;;;;1.23;1.00;;;;;;;;;;5029823;28;20050;-76
2023/02/26 05:34:57;;;;;;;1.87;0.90;;;;;;;;;;5029574;28;20093;-76
2023/02/26 05:37:22;;;;;;;2.00;1.20;;;;;;;;;;5027977;28;20056;-76
2023/02/26 05:39:48;;;;;;;1.33;1.07;;;;;;;;;;5029475;28;20029;-77
2023/02/26 05:42:14;;;;;;;1.60;1.13;;;;;;;;;;5029900;28;20037;-75
2023/02/26 05:44:39;;;;;;;3.63;0.93;;;;;;;;;;5016416;28;20131;-75
2023/02/26 05:47:05;;;;;;;1.10;1.00;;;;;;;;;;5015960;28;20112;-76
2023/02/26 05:49:32;;;;;;;1.17;1.07;;;;;;;;;;5032673;28;20061;-75
2023/02/26 05:51:57;;;;;;;1.50;1.03;;;;;;;;;;5033692;28;20033;-75
2023/02/26 05:54:23;;;;;;;1.30;1.00;;;;;;;;;;5032127;28;20039;-76
2023/02/26 05:56:49;;;;;;;1.77;1.13;;;;;;;;;;5016015;28;20044;-76
2023/02/26 05:59:14;;;;;;;2.13;1.70;;;;;;;;;;5011865;28;20018;-76
2023/02/26 06:01:41;;;;;;;1.80;1.30;;;;;;;;;;5016208;28;20048;-75
2023/02/26 06:04:07;;;;;;;1.70;1.40;;;;;;;;;;5025777;28;20045;-76
2023/02/26 06:06:33;;;;;;;1.27;1.13;;;;;;;;;;5033385;28;20068;-75
2023/02/26 06:09:00;;;;;;;1.20;1.10;;;;;;;;;;5015557;28;20093;-75
2023/02/26 06:11:26;;;;;;;1.97;1.00;;;;;;;;;;5026207;28;20021;-76
2023/02/26 06:13:51;;;;;;;3.63;1.53;;;;;;;;;;5031617;28;20389;-76
2023/02/26 06:16:19;;;;;;;2.80;1.30;;;;;;;;;;5028950;28;20025;-76
2023/02/26 06:18:45;;;;;;;3.27;1.27;;;;;;;;;;5001847;28;20025;-76
2023/02/26 06:21:10;;;;;;;0.77;0.70;;;;;;;;;;5020257;28;20634;-75
2023/02/26 06:23:36;;;;;;;2.93;1.20;;;;;;;;;;5025754;28;20026;-76
2023/02/26 06:26:01;;;;;;;2.97;1.63;;;;;;;;;;5001320;28;20468;-75
2023/02/26 06:28:27;;;;;;;7.10;1.63;;;;;;;;;;5015435;28;20032;-77
2023/02/26 06:30:52;;;;;;;1.80;1.03;;;;;;;;;;5015314;28;20026;-75
2023/02/26 06:33:18;;;;;;;1.07;0.93;;;;;;;;;;5032282;28;20029;-77
2023/02/26 06:35:44;;;;;;;2.80;1.40;;;;;;;;;;5033455;28;20031;-77
2023/02/26 06:38:10;;;;;;;1.40;1.30;;;;;;;;;;5015279;28;20038;-76
2023/02/26 06:40:36;;;;;;;2.83;1.17;;;;;;;;;;5033573;28;20096;-76
2023/02/26 06:43:01;;;;;;;2.00;1.40;;;;;;;;;;5033146;28;20553;-76
2023/02/26 06:45:27;;;;;;;2.87;1.60;;;;;;;;;;5031967;28;20033;-76
2023/02/26 06:47:52;;;;;;;1.33;1.03;;;;;;;;;;5032695;28;20132;-75
2023/02/26 06:50:17;;;;;;;5.23;1.70;;;;;;;;;;5015182;28;20040;-76
2023/02/26 06:52:43;;;;;;;3.60;1.43;;;;;;;;;;5033176;28;20034;-75
2023/02/26 06:55:09;;;;;;;2.43;1.43;;;;;;;;;;5032332;28;20128;-76
2023/02/26 06:57:35;;;;;;;3.60;1.20;;;;;;;;;;5014970;28;20083;-75
2023/02/26 07:00:02;;;;;;;2.43;1.43;;;;;;;;;;5014628;28;20025;-76
2023/02/26 07:02:28;;;;;;;1.97;1.20;;;;;;;;;;5014813;28;20102;-76
2023/02/26 07:04:54;;;;;;;3.03;1.10;;;;;;;;;;5014794;28;20394;-77
2023/02/26 07:07:19;;;;;;;1.20;1.10;;;;;;;;;;5014509;28;20033;-76
2023/02/26 07:09:45;;;;;;;3.00;1.77;;;;;;;;;;5030930;28;20029;-75
2023/02/26 07:12:10;;;;;;;3.07;2.23;;;;;;;;;;5014806;28;20025;-77
2023/02/26 07:14:36;;;;;;;2.97;1.77;;;;;;;;;;5014068;28;20054;-77
2023/02/26 07:17:02;;;;;;;3.23;1.40;;;;;;;;;;5014299;28;20048;-75
2023/02/26 07:19:28;;;;;;;3.43;1.87;;;;;;;;;;5014605;28;20022;-75
2023/02/26 07:21:53;;;;;;;1.40;1.20;;;;;;;;;;5030524;28;20047;-75
2023/02/26 07:24:21;;;;;;;4.20;1.43;;;;;;;;;;5014776;28;20458;-76
2023/02/26 07:26:46;;;;;;;5.23;2.00;;;;;;;;;;5030443;28;20038;-76
2023/02/26 07:29:12;;;;;;;4.77;1.30;;;;;;;;;;5014987;28;20032;-76
2023/02/26 07:31:38;;;;;;;1.90;1.40;;;;;;;;;;5032148;28;20417;-76
2023/02/26 07:34:03;;;;;;;6.50;2.23;;;;;;;;;;5030771;28;20418;-75
2023/02/26 07:36:30;;;;;;;1.23;1.10;;;;;;;;;;5014501;28;20335;-76
2023/02/26 07:38:56;;;;;;;2.00;1.10;;;;;;;;;;5014069;28;20044;-76
2023/02/26 07:41:22;;;;;;;4.10;1.13;;;;;;;;;;4998053;28;20124;-76
2023/02/26 07:43:47;;;;;;;2.77;1.33;;;;;;;;;;5031948;28;20537;-76
2023/02/26 07:46:13;;;;;;;3.27;1.23;;;;;;;;;;5030429;28;20057;-76
2023/02/26 07:48:40;;;;;;;1.77;1.30;;;;;;;;;;5014161;28;20044;-76
2023/02/26 07:51:06;;;;;;;1.90;1.80;;;;;;;;;;5031344;28;20059;-75
2023/02/26 07:53:32;;;;;;;2.97;1.50;;;;;;;;;;5031962;28;20523;-75
2023/02/26 07:55:57;;;;;;;1.67;1.50;;;;;;;;;;5013581;28;20037;-76
2023/02/26 07:58:23;;;;;;;2.10;1.67;;;;;;;;;;5014015;28;20113;-76
2023/02/26 08:00:50;;;;;;;4.87;1.63;;;;;;;;;;5013481;28;20030;-76
2023/02/26 08:03:15;;;;;;;3.10;1.70;;;;;;;;;;5029939;28;20044;-76
2023/02/26 08:05:41;;;;;;;3.50;1.77;;;;;;;;;;5013960;28;20460;-77
2023/02/26 08:08:06;;;;;;;7.30;2.10;;;;;;;;;;5031456;28;20481;-77
2023/02/26 08:10:32;;;;;;;5.80;2.97;;;;;;;;;;5032234;28;20025;-77
2023/02/26 08:12:57;;;;;;;2.77;1.73;;;;;;;;;;5031873;28;20103;-76
2023/02/26 08:15:23;;;;;;;1.57;1.27;;;;;;;;;;5013604;28;20137;-77
2023/02/26 08:17:53;;;;;;;7.20;2.00;;;;;;;;;;5013206;28;20045;-75
2023/02/26 08:20:19;;;;;;;3.87;2.03;;;;;;;;;;5030045;28;20155;-76
2023/02/26 08:22:44;;;;;;;5.73;2.00;;;;;;;;;;5029458;28;20124;-75
2023/02/26 08:25:11;;;;;;;3.63;2.20;;;;;;;;;;5013517;28;20485;-76
2023/02/26 08:27:37;;;;;;;2.57;1.27;;;;;;;;;;5029502;28;20533;-77
2023/02/26 08:30:03;;;;;;;5.77;1.80;;;;;;;;;;5013145;28;20120;-76
2023/02/26 08:32:29;;;;;;;6.13;1.70;;;;;;;;;;5012746;28;20128;-75
2023/02/26 08:34:54;;;;;;;6.40;1.77;;;;;;;;;;5029599;28;20125;-76
2023/02/26 08:37:23;;;;;;;2.10;1.23;;;;;;;;;;5030863;28;20465;-77
2023/02/26 08:39:49;;;;;;;1.50;1.40;;;;;;;;;;5013026;28;20025;-77
2023/02/26 08:42:15;;;;;;;2.07;1.50;;;;;;;;;;5013111;28;20533;-76
2023/02/26 08:44:42;;;;;;;7.53;1.83;;;;;;;;;;5013202;28;20397;-75
2023/02/26 08:47:08;;;;;;;4.27;1.63;;;;;;;;;;5012652;28;20136;-77
2023/02/26 08:49:33;;;;;;;4.00;1.17;;;;;;;;;;5030686;28;20087;-76
2023/02/26 08:51:59;;;;;;;2.97;1.40;;;;;;;;;;5012173;28;20029;-76
2023/02/26 08:54:24;;;;;;;1.97;1.43;;;;;;;;;;5028739;28;20144;-76
2023/02/26 08:56:52;;;;;;;4.00;1.10;;;;;;;;;;5012226;28;20056;-76
2023/02/26 08:59:18;;;;;;;4.20;1.60;;;;;;;;;;5029038;28;20033;-76
2023/02/26 09:01:44;;;;;;;4.07;1.43;;;;;;;;;;5030860;28;20033;-76
2023/02/26 09:04:09;;;;;;;2.60;1.50;;;;;;;;;;5031131;28;20114;-76
2023/02/26 09:06:35;;;;;;;1.73;1.17;;;;;;;;;;5014223;28;20037;-76
2023/02/26 09:09:02;;;;;;;6.30;1.40;;;;;;;;;;5032254;28;20021;-76
2023/02/26 09:11:29;;;;;;;3.47;1.40;;;;;;;;;;4998827;28;20033;-77
2023/02/26 09:13:57;;;;;;;2.03;1.13;;;;;;;;;;5033305;28;20037;-76
2023/02/26 09:16:23;;;;;;;1.67;1.27;;;;;;;;;;5023766;28;20489;-77
2023/02/26 09:18:48;;;;;;;4.00;1.90;;;;;;;;;;5029815;28;20043;-77
2023/02/26 09:21:14;;;;;;;1.47;1.03;;;;;;;;;;5046339;28;20422;-75
2023/02/26 09:23:39;;;;;;;2.73;2.20;;;;;;;;;;5039150;28;20117;-74
2023/02/26 09:26:07;;;;;;;6.60;1.60;;;;;;;;;;5043165;28;20029;-76
2023/02/26 09:28:33;;;;;;;1.77;1.27;;;;;;;;;;5008465;28;20024;-76
2023/02/26 09:30:58;;;;;;;7.03;1.87;;;;;;;;;;5045677;28;20025;-75
2023/02/26 09:33:24;;;;;;;2.80;1.63;;;;;;;;;;5037764;28;20071;-76
2023/02/26 09:35:51;;;;;;;8.30;2.63;;;;;;;;;;5031428;28;20033;-76
2023/02/26 09:38:17;;;;;;;2.47;1.27;;;;;;;;;;5030707;28;20060;-76
2023/02/26 09:40:48;;;;;;;6.37;1.60;;;;;;;;;;4996336;28;20033;-77
2023/02/26 09:43:27;;;;;;;8.25;1.10;;;;;;;;;;5012373;28;20029;-75
2023/02/26 09:45:56;;;;;;;2.13;1.20;;;;;;;;;;5029431;28;20033;-77
2023/02/26 09:48:23;;;;;;;3.17;1.30;;;;;;;;;;5030358;28;20014;-75
2023/02/26 09:50:57;;;;;;;3.17;0.83;;;;;;;;;;5012823;28;20091;-75
2023/02/26 09:53:30;;;;;;;2.90;1.40;;;;;;;;;;5030666;28;20057;-74
2023/02/26 09:56:03;;;;;;;3.23;1.33;;;;;;;;;;5030417;28;20048;-76
2023/02/26 09:58:34;;;;;;;3.63;1.40;;;;;;;;;;5028281;28;20139;-76
2023/02/26 10:01:13;;;;;;;3.10;1.13;;;;;;;;;;5029916;28;20040;-74
2023/02/26 10:04:00;;;;;;;2.03;1.30;;;;;;;;;;5028883;28;20026;-75
2023/02/26 10:07:04;;;;;;;4.03;1.17;;;;;;;;;;5028099;28;20080;-76
2023/02/26 10:09:29;;;;;;;0.77;0.77;;;;;;;;;;5027872;28;20083;-76
2023/02/26 10:12:07;;;;;;;3.07;1.10;;;;;;;;;;5027729;28;20109;-76
2023/02/26 10:14:41;;;;;;;2.90;0.97;;;;;;;;;;5028000;28;20049;-76
2023/02/26 10:17:24;;;;;;;4.47;1.40;;;;;;;;;;5029523;28;20025;-76
2023/02/26 10:19:56;;;;;;;2.50;0.93;;;;;;;;;;5029202;28;20116;-76
2023/02/26 10:22:27;;;;;;;;;;;;;;;;;;5029950;28;20025;-76
2023/02/26 10:25:00;;;;;;;1.43;0.77;;;;;;;;;;5011639;28;19913;-77
2023/02/26 10:27:50;;;;;;;1.83;1.43;;;;;;;;;;5011806;28;20434;-76
2023/02/26 10:30:46;;;;;;;2.97;1.10;;;;;;;;;;5030766;28;20041;-78
2023/02/26 10:33:56;;;;;;;4.60;1.63;;;;;;;;;;5024086;28;20049;-76
2023/02/26 10:36:29;;;;;;;2.60;1.60;;;;;;;;;;5015192;28;20037;-76
2023/02/26 10:39:22;;;;;;;3.20;1.47;;;;;;;;;;5033474;28;20063;-75
2023/02/26 10:41:50;;;;;;;3.03;1.30;;;;;;;;;;5025758;28;20052;-76
2023/02/26 10:44:18;;;;;;;3.73;1.23;;;;;;;;;;5033503;28;20060;-76
2023/02/26 10:47:10;;;;;;;2.93;1.40;;;;;;;;;;5031457;28;20073;-75
2023/02/26 10:50:00;;;;;;;1.92;1.40;;;;;;;;;;5032809;28;20075;-75
2023/02/26 10:52:29;;;;;;;3.43;2.57;;;;;;;;;;5015273;28;20047;-77
2023/02/26 10:55:03;;;;;;;3.67;1.53;;;;;;;;;;5032922;28;20037;-75
2023/02/26 10:57:33;;;;;;;3.17;1.40;;;;;;;;;;5014677;28;20040;-76
2023/02/26 11:00:01;;;;;;;3.30;1.33;;;;;;;;;;5032510;28;20045;-76
2023/02/26 11:02:35;;;;;;;1.57;1.23;;;;;;;;;;5014555;28;20079;-76
2023/02/26 11:05:03;;;;;;;2.97;1.90;;;;;;;;;;5014334;28;20116;-76
2023/02/26 11:07:31;;;;;;;3.00;1.73;;;;;;;;;;5014859;28;20029;-77
2023/02/26 11:09:57;;;;;;;3.97;1.70;;;;;;;;;;5032531;28;20505;-76
2023/02/26 11:12:24;;;;;;;3.50;1.60;;;;;;;;;;5014092;28;20021;-76
2023/02/26 11:14:51;;;;;;;1.90;1.40;;;;;;;;;;4997453;28;20057;-75
2023/02/26 11:17:18;;;;;;;2.17;1.97;;;;;;;;;;5014326;28;20029;-77
2023/02/26 11:19:52;;;;;;;3.40;2.37;;;;;;;;;;5014729;28;20055;-77
2023/02/26 11:22:17;;;;;;;3.20;2.20;;;;;;;;;;5031924;28;20079;-76
2023/02/26 11:24:46;;;;;;;5.17;2.50;;;;;;;;;;5014270;28;20032;-76
2023/02/26 11:27:22;;;;;;;7.07;3.03;;;;;;;;;;5032332;28;20104;-76
2023/02/26 11:29:54;;;;;;;3.33;2.07;;;;;;;;;;5032310;28;20053;-77
2023/02/26 11:32:32;;;;;;;5.95;2.50;;;;;;;;;;5014091;28;20108;-76
2023/02/26 11:34:58;;;;;;;3.77;1.93;;;;;;;;;;5014406;28;20041;-75
2023/02/26 11:37:29;;;;;;;5.90;2.43;;;;;;;;;;5014205;28;20351;-77
2023/02/26 11:40:12;;;;;;;4.03;2.07;;;;;;;;;;5032109;28;20120;-75
2023/02/26 11:42:46;;;;;;;2.93;2.10;;;;;;;;;;5014171;28;20365;-76
2023/02/26 11:45:15;;;;;;;3.43;2.07;;;;;;;;;;5030520;28;20041;-76
2023/02/26 11:47:41;;;;;;;3.37;1.93;;;;;;;;;;5032040;28;20021;-76
2023/02/26 11:50:16;;;;;;;1.80;1.70;;;;;;;;;;5031616;28;20076;-77
2023/02/26 11:52:44;;;;;;;3.17;1.93;;;;;;;;;;5031539;28;20029;-75
2023/02/26 11:55:21;;;;;;;3.57;2.47;;;;;;;;;;5031336;28;20116;-76
2023/02/26 11:57:52;;;;;;;2.83;2.13;;;;;;;;;;5031374;28;20064;-76
2023/02/26 12:00:24;;;;;;;4.70;2.88;;;;;;;;;;5031904;28;20029;-77
2023/02/26 12:02:50;;;;;;;3.60;1.90;;;;;;;;;;5013501;28;20083;-76
2023/02/26 12:05:17;;;;;;;4.43;2.07;;;;;;;;;;5031710;28;20022;-76
2023/02/26 12:07:45;;;;;;;3.63;2.27;;;;;;;;;;5030194;28;20037;-76
2023/02/26 12:10:17;;;;;;;4.30;1.93;;;;;;;;;;5013462;28;20025;-77
2023/02/26 12:12:49;;;;;;;;;;;;;;;;;;5014513;28;20017;-76
2023/02/26 12:15:41;;;;;;;2.58;1.98;;;;;;;;;;5014258;28;19932;-76
2023/02/26 12:18:36;;;;;;;4.55;1.48;;;;;;;;;;5031090;28;20021;-77
2023/02/26 12:21:25;;;;;;;2.43;2.20;;;;;;;;;;5013864;28;20075;-75
2023/02/26 12:24:10;;;;;;;6.73;2.20;;;;;;;;;;4969184;28;20511;-76
2023/02/26 12:26:44;;;;;;;4.23;1.70;;;;;;;;;;5032720;28;20021;-76
2023/02/26 12:29:28;;;;;;;2.23;1.70;;;;;;;;;;5031790;28;20056;-76
2023/02/26 12:32:06;;;;;;;4.83;1.77;;;;;;;;;;5034248;28;20022;-76
2023/02/26 12:34:43;;;;;;;3.10;2.00;;;;;;;;;;5013624;28;20033;-75
2023/02/26 12:37:31;;;;;;;1.47;1.33;;;;;;;;;;5013666;28;20029;-76
2023/02/26 12:40:13;;;;;;;1.37;1.27;;;;;;;;;;5017619;28;20045;-76
2023/02/26 12:42:51;;;;;;;2.15;1.58;;;;;;;;;;5031268;28;20040;-76
2023/02/26 12:45:22;;;;;;;3.60;1.40;;;;;;;;;;5013144;28;20041;-75
2023/02/26 12:48:00;;;;;;;2.92;1.48;;;;;;;;;;5031266;28;20021;-75
2023/02/26 12:50:50;;;;;;;1.97;1.40;;;;;;;;;;5011277;28;20030;-77
2023/02/26 12:53:28;;;;;;;4.37;1.43;;;;;;;;;;4995079;28;20113;-75
2023/02/26 12:56:12;;;;;;;2.20;1.43;;;;;;;;;;5013202;28;20063;-76
2023/02/26 12:59:03;;;;;;;4.57;1.50;;;;;;;;;;5012695;28;20159;-75
2023/02/26 13:01:44;;;;;;;2.60;1.67;;;;;;;;;;5028926;28;20033;-76
2023/02/26 13:04:32;;;;;;;3.22;1.92;;;;;;;;;;5030296;28;20033;-76
2023/02/26 13:07:22;;;;;;;4.43;1.40;;;;;;;;;;5029592;28;20120;-77
2023/02/26 13:09:54;;;;;;;4.70;1.33;;;;;;;;;;5018444;28;20037;-76
2023/02/26 13:12:57;;;;;;;4.00;1.33;;;;;;;;;;5013116;28;20030;-76
2023/02/26 13:15:36;;;;;;;1.33;0.80;;;;;;;;;;5012312;28;20106;-77
2023/02/26 13:18:10;;;;;;;2.07;1.23;;;;;;;;;;5012767;28;20029;-77
2023/02/26 13:20:39;;;;;;;2.33;1.63;;;;;;;;;;5012953;28;20092;-76
2023/02/26 13:23:18;;;;;;;2.43;1.10;;;;;;;;;;5011781;28;20026;-76
2023/02/26 13:26:12;;;;;;;1.37;1.10;;;;;;;;;;5012010;28;20025;-76
2023/02/26 13:28:51;;;;;;;4.40;1.20;;;;;;;;;;5027515;28;20040;-75
2023/02/26 13:31:23;;;;;;;3.07;1.70;;;;;;;;;;5028358;28;20116;-75
2023/02/26 13:33:50;;;;;;;5.07;1.70;;;;;;;;;;5011938;28;20694;-75
2023/02/26 13:36:16;;;;;;;3.63;1.90;;;;;;;;;;5012041;28;20712;-74
2023/02/26 13:38:53;;;;;;;3.97;1.60;;;;;;;;;;5012083;28;20481;-75
2023/02/26 13:41:43;;;;;;;4.30;1.57;;;;;;;;;;5012804;28;20041;-76
2023/02/26 13:44:31;;;;;;;3.43;2.13;;;;;;;;;;5012280;28;20743;-75
2023/02/26 13:47:13;;;;;;;3.30;2.07;;;;;;;;;;5030012;28;20040;-74
2023/02/26 13:49:57;;;;;;;3.75;1.58;;;;;;;;;;5028605;28;20041;-74
2023/02/26 13:52:33;;;;;;;2.47;1.73;;;;;;;;;;5012135;28;20066;-75
2023/02/26 13:55:02;;;;;;;3.93;2.13;;;;;;;;;;5030012;28;20039;-75
2023/02/26 13:57:46;;;;;;;4.50;2.10;;;;;;;;;;5011793;28;20091;-76
2023/02/26 14:00:26;;;;;;;3.57;1.43;;;;;;;;;;5016781;28;20025;-75
2023/02/26 14:03:08;;;;;;;1.50;1.23;;;;;;;;;;5012453;28;20021;-76
2023/02/26 14:05:52;;;;;;;4.70;1.50;;;;;;;;;;4995780;28;20402;-75
2023/02/26 14:08:27;;;;;;;2.83;1.67;;;;;;;;;;4997845;28;20029;-74
2023/02/26 14:10:52;;;;;;;2.77;1.70;;;;;;;;;;5000066;28;20029;-74
2023/02/26 14:13:20;;;;;;;5.80;2.00;;;;;;;;;;5001951;28;20639;-76
2023/02/26 14:16:11;;;;;;;1.70;1.20;;;;;;;;;;5000850;28;20137;-75
2023/02/26 14:18:39;;;;;;;3.20;1.47;;;;;;;;;;4993380;28;20096;-73
2023/02/26 14:21:23;;;;;;;4.73;1.60;;;;;;;;;;5016093;28;20458;-74
2023/02/26 14:23:51;;;;;;;2.73;2.13;;;;;;;;;;5033863;28;20048;-74
2023/02/26 14:26:18;;;;;;;2.43;1.60;;;;;;;;;;5015943;28;20026;-75
2023/02/26 14:29:13;;;;;;;2.33;1.50;;;;;;;;;;5032288;28;20044;-75
2023/02/26 14:32:15;;;;;;;4.00;1.50;;;;;;;;;;5016294;28;20068;-74
2023/02/26 14:34:51;;;;;;;1.30;1.20;;;;;;;;;;5030457;28;20045;-74
2023/02/26 14:37:21;;;;;;;3.83;1.43;;;;;;;;;;5033321;28;20056;-74
2023/02/26 14:40:12;;;;;;;2.87;1.00;;;;;;;;;;5015322;28;20029;-76
2023/02/26 14:42:48;;;;;;;4.87;1.27;;;;;;;;;;5025179;28;20084;-75
2023/02/26 14:45:30;;;;;;;4.50;1.00;;;;;;;;;;5033128;28;20045;-74
2023/02/26 14:47:58;;;;;;;2.72;1.33;;;;;;;;;;5032854;28;20105;-74
2023/02/26 14:50:29;;;;;;;2.93;1.53;;;;;;;;;;5014604;28;20422;-75
2023/02/26 14:53:26;;;;;;;3.23;1.63;;;;;;;;;;5032829;28;20397;-73
2023/02/26 14:56:16;;;;;;;4.73;1.27;;;;;;;;;;5014552;28;20120;-75
2023/02/26 14:58:47;;;;;;;2.83;2.03;;;;;;;;;;5032726;28;20032;-73
2023/02/26 15:01:59;;;;;;;17.20;1.73;;;;;;;;;;5030404;28;20433;-74
2023/02/26 15:04:46;;;;;;;3.50;1.83;;;;;;;;;;5032035;28;20250;-74
2023/02/26 15:07:29;;;;;;;3.73;1.20;;;;;;;;;;5032426;28;20259;-75
2023/02/26 15:10:29;;;;;;;12.03;1.80;;;;;;;;;;5014380;28;20398;-75
2023/02/26 15:13:03;;;;;;;3.00;1.33;;;;;;;;;;5031043;28;20033;-75
2023/02/26 15:16:04;;;;;;;1.40;1.23;;;;;;;;;;5014707;28;20049;-74